Time;durP1;ratioP1;P1;durP2;ratioP2;P2;SDS_P1;SDS_P2;PMS_P1;PMS_P2;Temp;Humidity;BMP_temperature;BMP_pressure;BME280_temperature;BME280_humidity;BME280_pressure;Samples;Min_cycle;Max_cycle;Signal;HPM_P1;HPM_P2
2023/08/22 00:00:43;;;;;;;24.50;22.10;;;;;;;20.80;94.63;97225.82;109217;1272;22524;-76
2023/08/22 00:03:31;;;;;;;23.50;21.10;;;;;;;20.77;95.45;97222.48;109156;1269;22579;-77
2023/08/22 00:05:59;;;;;;;23.00;20.80;;;;;;;20.73;95.63;97222.75;109130;1271;22534;-78
2023/08/22 00:08:28;;;;;;;26.90;24.20;;;;;;;20.72;96.38;97226.27;109204;1264;24241;-76
2023/08/22 00:10:59;;;;;;;26.60;24.00;;;;;;;20.77;96.98;97221.70;109185;1265;22521;-77
2023/08/22 00:13:27;;;;;;;25.30;22.90;;;;;;;20.81;97.16;97217.00;108982;1265;22526;-77
2023/08/22 00:15:59;;;;;;;24.20;22.10;;;;;;;20.87;97.28;97214.23;108882;1272;22524;-77
2023/08/22 00:18:28;;;;;;;25.50;22.90;;;;;;;20.92;97.31;97212.56;108832;1272;22534;-77
2023/08/22 00:20:56;;;;;;;25.40;22.90;;;;;;;20.97;97.32;97217.70;108865;1272;22634;-76
2023/08/22 00:23:24;;;;;;;25.20;22.80;;;;;;;21.01;97.40;97220.77;109137;1266;25412;-77
2023/08/22 00:25:53;;;;;;;25.40;23.10;;;;;;;21.07;97.61;97208.85;108847;1267;22554;-77
2023/08/22 00:28:22;;;;;;;25.10;22.80;;;;;;;21.06;97.25;97200.14;108872;1272;22534;-77
2023/08/22 00:30:53;;;;;;;24.10;21.90;;;;;;;20.99;97.17;97198.17;108924;1265;22536;-76
2023/08/22 00:33:21;;;;;;;25.00;22.60;;;;;;;20.89;96.79;97191.23;109169;1272;22546;-76
2023/08/22 00:35:50;;;;;;;24.80;22.40;;;;;;;20.90;97.47;97193.02;109182;1265;26675;-77
2023/08/22 00:38:18;;;;;;;24.00;21.50;;;;;;;20.96;97.49;97196.86;109188;1272;27235;-76
2023/08/22 00:40:46;;;;;;;25.50;23.10;;;;;;;20.99;97.51;97197.83;109200;1264;22624;-77
2023/08/22 00:43:14;;;;;;;25.90;23.20;;;;;;;21.05;97.96;97198.85;109181;1272;22538;-77
2023/08/22 00:45:44;;;;;;;25.10;22.60;;;;;;;21.10;97.87;97194.48;109191;1272;22563;-77
2023/08/22 00:48:11;;;;;;;;;;;;;;;21.13;97.75;97187.52;109188;1272;24194;-77
2023/08/22 00:50:40;;;;;;;26.60;24.10;;;;;;;21.12;98.12;97182.64;109132;1272;22560;-77
2023/08/22 00:53:08;;;;;;;25.50;22.20;;;;;;;21.11;98.17;97174.17;109165;1266;22560;-77
2023/08/22 00:55:36;;;;;;;22.70;20.40;;;;;;;21.04;97.33;97171.02;109192;1265;22548;-77
2023/08/22 00:58:05;;;;;;;22.50;20.20;;;;;;;20.91;96.73;97168.72;109139;1269;22521;-77
2023/08/22 01:00:33;;;;;;;24.90;22.40;;;;;;;20.76;96.59;97172.79;109190;1271;22532;-77
2023/08/22 01:03:03;;;;;;;24.30;21.90;;;;;;;20.72;97.54;97167.19;109180;1271;25287;-77
2023/08/22 01:05:34;;;;;;;25.70;23.10;;;;;;;20.77;98.24;97159.27;109270;1266;22525;-77
2023/08/22 01:08:10;;;;;;;25.80;23.40;;;;;;;20.85;98.77;97165.72;109073;1272;22520;-77
2023/08/22 01:10:46;;;;;;;25.30;22.80;;;;;;;20.86;98.62;97168.08;109320;1272;25293;-77
2023/08/22 01:13:22;;;;;;;24.80;22.20;;;;;;;20.84;98.69;97163.91;109236;1271;22530;-77
2023/08/22 01:15:51;;;;;;;23.10;21.10;;;;;;;20.88;99.33;97156.45;109293;1266;24366;-77
2023/08/22 01:18:20;;;;;;;23.80;21.60;;;;;;;20.95;99.49;97159.90;109215;1266;22518;-77
2023/08/22 01:20:48;;;;;;;23.80;21.60;;;;;;;20.97;99.33;97166.60;109220;1271;25252;-77
2023/08/22 01:23:16;;;;;;;23.60;21.30;;;;;;;20.97;99.24;97164.77;109215;1269;22529;-77
2023/08/22 01:25:44;;;;;;;23.50;21.30;;;;;;;20.97;99.47;97163.84;109212;1272;24321;-77
2023/08/22 01:28:18;;;;;;;23.80;21.50;;;;;;;20.96;98.92;97161.88;109240;1264;22527;-77
2023/08/22 01:30:51;;;;;;;23.60;21.20;;;;;;;20.98;99.28;97159.02;109221;1267;22525;-77
2023/08/22 01:33:27;;;;;;;22.80;20.80;;;;;;;20.98;98.98;97156.36;109217;1267;22544;-77
2023/08/22 01:35:56;;;;;;;22.30;20.10;;;;;;;21.01;99.08;97158.14;109220;1271;22601;-77
2023/08/22 01:38:26;;;;;;;;;;;;;;;21.03;98.75;97159.29;109175;1271;23986;-77
2023/08/22 01:40:55;;;;;;;21.10;19.10;;;;;;;21.05;98.71;97156.96;109188;1271;22544;-77
2023/08/22 01:43:23;;;;;;;21.40;19.50;;;;;;;21.08;98.48;97157.27;109169;1272;22525;-78
2023/08/22 01:45:51;;;;;;;21.80;19.80;;;;;;;21.11;98.36;97150.23;109178;1271;22533;-77
2023/08/22 01:48:19;;;;;;;22.30;20.20;;;;;;;21.11;98.06;97153.39;109143;1272;22515;-77
2023/08/22 01:50:48;;;;;;;21.80;19.60;;;;;;;21.07;97.64;97158.16;109219;1267;23011;-77
2023/08/22 01:53:16;;;;;;;23.20;21.10;;;;;;;20.92;97.30;97157.74;109194;1271;22524;-77
2023/08/22 01:55:46;;;;;;;22.90;20.70;;;;;;;20.81;97.65;97157.05;109211;1260;22520;-77
2023/08/22 01:58:15;;;;;;;22.40;20.00;;;;;;;20.81;98.18;97159.17;109222;1264;22563;-77
2023/08/22 02:00:43;;;;;;;21.10;19.10;;;;;;;20.84;98.29;97160.55;109204;1263;22561;-77
2023/08/22 02:03:11;;;;;;;21.90;19.90;;;;;;;20.84;97.80;97162.14;109227;1259;22556;-77
2023/08/22 02:05:40;;;;;;;22.00;19.70;;;;;;;20.73;97.60;97161.91;109186;1266;25516;-77
2023/08/22 02:08:08;;;;;;;22.20;20.00;;;;;;;20.59;97.48;97157.65;109221;1271;25284;-77
2023/08/22 02:10:36;;;;;;;22.80;20.60;;;;;;;20.50;97.96;97159.96;109294;1259;22547;-77
2023/08/22 02:13:05;;;;;;;22.00;19.90;;;;;;;20.51;98.65;97154.64;109234;1272;24370;-77
2023/08/22 02:15:33;;;;;;;23.40;21.00;;;;;;;20.57;98.74;97151.87;109198;1272;22526;-77
2023/08/22 02:18:02;;;;;;;24.30;22.10;;;;;;;20.62;98.76;97147.52;109153;1265;23340;-77
2023/08/22 02:20:31;;;;;;;22.50;20.40;;;;;;;20.58;98.50;97148.16;109240;1266;22499;-77
2023/08/22 02:23:01;;;;;;;22.20;20.10;;;;;;;20.51;98.46;97146.48;109152;1272;24289;-77
2023/08/22 02:25:32;;;;;;;21.60;19.50;;;;;;;20.54;98.94;97154.45;109184;1268;22545;-77
2023/08/22 02:28:01;;;;;;;22.60;20.30;;;;;;;20.59;98.91;97156.86;109182;1264;22522;-77
2023/08/22 02:30:29;;;;;;;22.60;20.50;;;;;;;20.60;98.85;97152.89;109227;1264;24360;-77
2023/08/22 02:32:57;;;;;;;22.90;20.80;;;;;;;20.56;99.12;97156.01;109184;1272;22541;-77
2023/08/22 02:35:26;;;;;;;24.10;21.90;;;;;;;20.56;99.38;97153.16;109132;1272;22555;-77
2023/08/22 02:37:54;;;;;;;22.00;19.60;;;;;;;20.55;99.39;97149.57;109201;1272;22518;-77
2023/08/22 02:40:22;;;;;;;20.50;18.50;;;;;;;20.51;98.80;97151.27;109233;1272;25283;-77
2023/08/22 02:42:51;;;;;;;21.00;18.80;;;;;;;20.48;98.93;97149.37;109126;1272;22517;-77
2023/08/22 02:45:19;;;;;;;22.00;20.10;;;;;;;20.50;98.78;97145.23;109188;1272;22480;-77
2023/08/22 02:47:47;;;;;;;22.50;20.50;;;;;;;20.54;98.99;97144.92;109176;1272;22550;-77
2023/08/22 02:50:16;;;;;;;24.10;21.70;;;;;;;20.58;98.99;97143.15;109199;1271;22531;-77
2023/08/22 02:52:44;;;;;;;21.90;20.00;;;;;;;20.61;98.90;97139.79;109205;1271;23165;-77
2023/08/22 02:55:12;;;;;;;23.30;20.90;;;;;;;20.56;98.54;97139.45;109188;1267;22543;-77
2023/08/22 02:57:40;;;;;;;23.00;20.70;;;;;;;20.47;98.29;97142.58;109217;1269;22518;-77
2023/08/22 03:00:11;;;;;;;22.40;20.20;;;;;;;20.48;98.91;97142.98;109198;1272;22568;-77
2023/08/22 03:02:39;;;;;;;22.20;19.90;;;;;;;20.49;98.81;97140.62;109214;1271;23417;-77
2023/08/22 03:05:12;;;;;;;22.20;20.20;;;;;;;20.42;98.77;97142.94;109196;1266;22543;-77
2023/08/22 03:07:40;;;;;;;21.50;19.70;;;;;;;20.38;98.93;97142.88;109184;1272;24184;-77
2023/08/22 03:10:10;;;;;;;21.80;19.70;;;;;;;20.28;98.77;97140.90;109200;1272;22560;-77
2023/08/22 03:12:38;;;;;;;21.70;19.80;;;;;;;20.18;98.93;97144.55;109190;1271;22528;-77
2023/08/22 03:15:09;;;;;;;23.30;21.00;;;;;;;20.16;99.42;97147.10;109179;1271;22515;-77
2023/08/22 03:17:37;;;;;;;23.30;21.10;;;;;;;20.15;99.89;97149.73;109236;1271;22952;-77
2023/08/22 03:20:09;;;;;;;22.90;20.80;;;;;;;20.14;99.98;97151.48;109175;1267;25363;-77
2023/08/22 03:22:37;;;;;;;20.90;19.00;;;;;;;20.19;100.00;97156.04;109200;1272;22525;-77
2023/08/22 03:25:06;;;;;;;21.40;19.30;;;;;;;20.22;100.00;97147.28;109201;1272;22538;-77
2023/08/22 03:27:34;;;;;;;20.90;18.90;;;;;;;20.23;100.00;97147.80;109165;1269;24377;-77
2023/08/22 03:30:03;;;;;;;20.90;18.90;;;;;;;20.27;100.00;97144.49;109246;1272;22528;-77
2023/08/22 03:32:31;;;;;;;21.30;19.40;;;;;;;20.28;100.00;97140.75;109237;1272;22529;-77
2023/08/22 03:34:59;;;;;;;20.40;18.70;;;;;;;20.32;100.00;97146.13;109209;1271;22556;-77
2023/08/22 03:37:28;;;;;;;21.90;19.80;;;;;;;20.39;100.00;97150.23;109133;1270;22518;-77
2023/08/22 03:39:56;;;;;;;22.00;20.10;;;;;;;20.42;100.00;97153.41;109202;1272;23147;-77
2023/08/22 03:42:24;;;;;;;21.60;19.50;;;;;;;20.45;100.00;97154.12;109192;1264;22524;-77
2023/08/22 03:44:52;;;;;;;21.50;19.50;;;;;;;20.49;100.00;97154.27;109179;1272;25560;-77
2023/08/22 03:47:20;;;;;;;20.90;19.00;;;;;;;20.54;100.00;97148.91;108859;1272;22580;-77
2023/08/22 03:49:49;;;;;;;21.50;19.60;;;;;;;20.59;100.00;97141.86;109135;1268;22532;-77
2023/08/22 03:52:17;;;;;;;21.90;19.90;;;;;;;20.63;100.00;97139.84;109148;1272;22533;-77
2023/08/22 03:54:45;;;;;;;20.00;18.20;;;;;;;20.64;100.00;97140.27;109153;1272;22658;-77
2023/08/22 03:57:13;;;;;;;20.50;18.50;;;;;;;20.63;100.00;97140.40;109186;1271;23380;-77
2023/08/22 03:59:42;;;;;;;20.80;18.80;;;;;;;20.64;99.98;97144.27;109242;1271;22561;-77
2023/08/22 04:02:10;;;;;;;20.80;18.90;;;;;;;20.62;99.88;97145.27;109189;1272;22525;-77
2023/08/22 04:04:38;;;;;;;20.20;18.40;;;;;;;20.62;99.93;97145.87;109144;1272;22550;-77
2023/08/22 04:07:06;;;;;;;19.30;17.30;;;;;;;20.63;99.94;97141.14;109155;1269;25252;-77
2023/08/22 04:09:35;;;;;;;19.30;17.70;;;;;;;20.63;99.74;97145.38;109242;1272;22590;-77
2023/08/22 04:12:03;;;;;;;19.30;17.70;;;;;;;20.63;99.75;97143.23;109210;1272;22540;-77
2023/08/22 04:14:31;;;;;;;20.80;18.90;;;;;;;20.62;99.73;97144.75;109260;1272;22538;-77
2023/08/22 04:16:59;;;;;;;18.50;16.90;;;;;;;20.63;99.84;97145.86;109242;1272;25236;-77
2023/08/22 04:19:28;;;;;;;20.30;18.50;;;;;;;20.65;99.65;97149.23;109280;1266;25369;-78
2023/08/22 04:21:57;;;;;;;20.90;19.00;;;;;;;20.56;99.29;97139.77;109251;1266;22545;-77
2023/08/22 04:24:26;;;;;;;21.80;19.80;;;;;;;20.43;99.58;97140.11;109199;1271;22559;-77
2023/08/22 04:26:54;;;;;;;21.70;19.80;;;;;;;20.37;99.96;97138.93;109134;1269;22465;-77
2023/08/22 04:29:22;;;;;;;23.00;20.90;;;;;;;20.42;100.00;97137.84;109234;1269;22619;-77
2023/08/22 04:31:51;;;;;;;21.20;19.20;;;;;;;20.46;100.00;97139.76;109148;1271;22532;-77
2023/08/22 04:34:19;;;;;;;21.30;19.40;;;;;;;20.38;100.00;97141.80;108919;1247;22528;-77
2023/08/22 04:36:48;;;;;;;21.90;19.90;;;;;;;20.29;100.00;97142.41;109176;1272;22904;-77
2023/08/22 04:39:16;;;;;;;23.50;21.40;;;;;;;20.27;100.00;97141.85;109238;1269;23088;-77
2023/08/22 04:41:44;;;;;;;23.00;20.90;;;;;;;20.27;100.00;97139.27;109298;1272;22583;-77
2023/08/22 04:44:12;;;;;;;23.00;20.80;;;;;;;20.32;100.00;97145.13;109271;1271;22534;-77
2023/08/22 04:46:41;;;;;;;24.40;22.10;;;;;;;20.37;100.00;97146.41;109284;1272;22538;-77
2023/08/22 04:49:11;;;;;;;22.30;20.30;;;;;;;20.46;100.00;97142.33;109211;1271;22730;-77
2023/08/22 04:51:39;;;;;;;22.70;20.60;;;;;;;20.59;100.00;97145.09;109242;1270;22538;-77
2023/08/22 04:54:08;;;;;;;22.00;20.00;;;;;;;20.76;100.00;97146.56;109187;1269;22528;-77
2023/08/22 04:56:36;;;;;;;22.60;20.60;;;;;;;20.90;100.00;97148.03;109183;1271;23632;-77
2023/08/22 04:59:04;;;;;;;24.00;21.70;;;;;;;21.08;100.00;97147.06;109154;1272;23272;-77
2023/08/22 05:01:33;;;;;;;22.70;20.30;;;;;;;21.40;100.00;97144.31;109217;1272;25366;-78
2023/08/22 05:04:01;;;;;;;21.50;19.70;;;;;;;21.67;100.00;97144.88;109169;1269;22536;-77
2023/08/22 05:06:29;;;;;;;20.30;18.40;;;;;;;21.91;100.00;97142.33;109130;1272;22517;-77
2023/08/22 05:08:57;;;;;;;20.70;18.80;;;;;;;22.06;100.00;97143.34;109221;1269;25372;-77
2023/08/22 05:11:26;;;;;;;19.20;17.60;;;;;;;22.03;100.00;97145.77;109230;1269;22987;-77
2023/08/22 05:13:54;;;;;;;19.90;18.10;;;;;;;22.01;100.00;97147.50;109124;1269;25299;-77
2023/08/22 05:16:23;;;;;;;19.30;17.50;;;;;;;22.32;100.00;97146.60;109216;1271;22567;-77
2023/08/22 05:18:51;;;;;;;18.00;16.40;;;;;;;22.80;100.00;97147.76;109165;1269;22522;-77
2023/08/22 05:21:20;;;;;;;18.90;17.00;;;;;;;23.21;100.00;97148.23;109152;1272;22525;-76
2023/08/22 05:23:48;;;;;;;17.80;16.20;;;;;;;23.58;100.00;97146.52;109219;1267;24343;-77
2023/08/22 05:26:17;;;;;;;17.60;15.70;;;;;;;23.95;99.40;97145.38;108959;1271;24270;-77
2023/08/22 05:28:46;;;;;;;16.50;15.10;;;;;;;24.19;97.88;97147.80;108972;1271;22524;-77
2023/08/22 05:31:21;;;;;;;16.70;15.10;;;;;;;24.22;95.71;97143.51;108979;1272;25456;-77
2023/08/22 05:33:49;;;;;;;16.50;14.90;;;;;;;23.97;94.46;97143.19;108937;1266;22521;-77
2023/08/22 05:36:19;;;;;;;16.60;14.70;;;;;;;23.91;95.12;97138.70;108945;1272;22653;-77
2023/08/22 05:38:47;;;;;;;15.50;14.10;;;;;;;24.15;95.25;97144.52;108901;1265;25410;-78
2023/08/22 05:41:16;;;;;;;15.60;14.30;;;;;;;24.26;94.21;97140.52;108898;1272;22623;-78
2023/08/22 05:43:45;;;;;;;15.80;14.40;;;;;;;24.25;93.71;97143.14;108825;1272;22522;-78
2023/08/22 05:46:13;;;;;;;15.80;14.40;;;;;;;24.44;93.48;97143.95;108848;1268;25415;-77
2023/08/22 05:48:42;;;;;;;16.00;14.50;;;;;;;24.69;92.90;97142.73;108913;1267;22528;-77
2023/08/22 05:51:10;;;;;;;15.90;14.50;;;;;;;24.90;92.01;97141.54;108847;1272;22537;-77
2023/08/22 05:53:39;;;;;;;14.90;13.60;;;;;;;25.18;91.81;97138.52;108845;1267;22543;-78
2023/08/22 05:56:07;;;;;;;15.40;13.90;;;;;;;25.58;91.44;97136.73;108876;1271;22537;-77
2023/08/22 05:58:35;;;;;;;14.60;13.20;;;;;;;25.96;90.55;97137.27;108917;1272;22520;-77
2023/08/22 06:01:09;;;;;;;13.70;12.40;;;;;;;26.30;89.16;97141.48;108898;1272;25520;-77
2023/08/22 06:03:39;;;;;;;12.60;11.40;;;;;;;26.50;87.67;97142.48;108941;1270;23443;-77
2023/08/22 06:06:08;;;;;;;12.90;11.80;;;;;;;26.56;86.22;97143.95;108976;1272;22598;-77
2023/08/22 06:08:37;;;;;;;12.50;11.30;;;;;;;26.54;84.59;97142.23;108871;1269;25373;-77
2023/08/22 06:11:06;;;;;;;11.50;10.30;;;;;;;26.28;83.51;97148.15;108955;1269;22549;-76
2023/08/22 06:13:35;;;;;;;11.20;10.20;;;;;;;25.86;82.55;97151.64;108992;1267;22580;-76
2023/08/22 06:16:04;;;;;;;12.40;11.20;;;;;;;25.84;83.81;97149.98;108920;1272;22524;-77
2023/08/22 06:18:31;;;;;;;;;;;;;;;25.99;84.05;97146.95;108863;1268;22491;-77
2023/08/22 06:21:01;;;;;;;12.00;10.80;;;;;;;26.20;83.69;97142.83;108877;1269;25323;-76
2023/08/22 06:23:30;;;;;;;13.10;11.50;;;;;;;26.40;83.20;97140.64;108874;1266;22521;-76
2023/08/22 06:25:58;;;;;;;11.20;10.00;;;;;;;26.57;82.45;97138.08;108892;1272;22556;-76
2023/08/22 06:28:27;;;;;;;11.20;10.10;;;;;;;26.76;81.83;97132.70;108864;1272;24402;-76
2023/08/22 06:31:00;;;;;;;11.70;10.60;;;;;;;26.79;80.36;97132.12;108900;1271;22529;-76
2023/08/22 06:33:31;;;;;;;12.00;10.80;;;;;;;26.76;80.21;97128.90;108853;1272;22543;-76
2023/08/22 06:35:59;;;;;;;11.70;10.50;;;;;;;26.91;80.50;97128.59;108862;1272;23507;-77
2023/08/22 06:38:27;;;;;;;11.10;10.00;;;;;;;27.13;80.37;97130.11;108843;1269;22511;-76
2023/08/22 06:40:56;;;;;;;12.10;10.80;;;;;;;27.40;80.12;97128.96;108799;1269;22564;-76
2023/08/22 06:43:24;;;;;;;11.40;10.30;;;;;;;27.60;79.23;97132.73;108876;1269;22645;-76
2023/08/22 06:46:00;;;;;;;12.40;11.30;;;;;;;27.67;78.35;97130.30;108872;1271;22524;-76
2023/08/22 06:48:28;;;;;;;12.20;11.10;;;;;;;27.77;78.21;97129.77;108912;1272;22505;-76
2023/08/22 06:51:00;;;;;;;11.90;10.80;;;;;;;27.90;77.99;97129.39;108997;1270;26536;-77
2023/08/22 06:53:29;;;;;;;11.80;10.60;;;;;;;27.98;77.25;97130.84;109001;1266;22526;-77
2023/08/22 06:55:58;;;;;;;11.40;10.40;;;;;;;28.01;76.79;97128.99;109017;1271;22541;-78
2023/08/22 06:58:26;;;;;;;12.80;11.60;;;;;;;27.99;76.34;97132.02;108898;1272;22746;-78
2023/08/22 07:00:55;;;;;;;12.30;11.00;;;;;;;28.00;76.19;97130.86;108942;1272;22524;-79
2023/08/22 07:03:24;;;;;;;12.00;10.80;;;;;;;28.09;76.06;97130.92;109239;1272;21812;-79
2023/08/22 07:05:53;;;;;;;12.10;11.00;;;;;;;28.17;75.62;97129.48;109319;1269;22530;-77
2023/08/22 07:08:20;;;;;;;;;;;;;;;28.23;75.57;97132.17;109350;1272;22505;-77
2023/08/22 07:10:49;;;;;;;12.20;11.00;;;;;;;28.25;74.60;97131.02;109376;1264;22545;-77
2023/08/22 07:13:19;;;;;;;12.10;10.80;;;;;;;28.26;74.48;97129.25;109374;1269;25474;-77
2023/08/22 07:15:47;;;;;;;12.60;11.30;;;;;;;28.23;73.88;97130.46;109238;1272;23345;-77
2023/08/22 07:18:16;;;;;;;12.70;11.50;;;;;;;28.35;73.94;97127.98;109213;1272;22522;-77
2023/08/22 07:20:46;;;;;;;13.00;11.70;;;;;;;28.46;73.77;97130.62;109264;1264;23305;-77
2023/08/22 07:23:15;;;;;;;13.30;12.00;;;;;;;28.40;72.80;97126.46;109203;1272;24206;-77
2023/08/22 07:25:48;;;;;;;13.30;12.00;;;;;;;28.24;72.73;97130.86;109238;1269;22535;-77
2023/08/22 07:28:17;;;;;;;15.60;12.90;;;;;;;28.28;73.06;97133.31;108760;1263;232569;-77
2023/08/22 07:30:47;;;;;;;13.80;12.50;;;;;;;28.35;72.87;97133.13;108889;1272;22520;-77
2023/08/22 07:33:15;;;;;;;15.10;13.60;;;;;;;28.52;72.71;97128.92;109237;1272;23853;-77
2023/08/22 07:35:45;;;;;;;14.50;13.10;;;;;;;28.67;72.58;97129.61;109228;1272;22531;-77
2023/08/22 07:38:14;;;;;;;13.80;12.50;;;;;;;28.93;72.51;97127.45;109215;1269;35089;-77
2023/08/22 07:40:45;;;;;;;13.70;12.40;;;;;;;29.09;72.21;97122.98;109245;1272;23359;-77
2023/08/22 07:43:14;;;;;;;15.60;14.10;;;;;;;29.29;72.08;97122.32;109216;1272;22554;-77
2023/08/22 07:45:43;;;;;;;16.00;13.70;;;;;;;29.49;71.67;97122.51;109257;1271;22581;-77
2023/08/22 07:48:12;;;;;;;15.90;13.90;;;;;;;29.62;71.10;97122.99;109160;1267;24385;-77
2023/08/22 07:50:43;;;;;;;15.10;13.60;;;;;;;29.71;70.01;97123.30;109198;1272;22557;-77
2023/08/22 07:53:12;;;;;;;16.30;14.50;;;;;;;29.48;68.70;97116.98;109155;1263;22521;-77
2023/08/22 07:55:40;;;;;;;;;;;;;;;29.57;70.12;97122.69;109159;1272;22519;-77
2023/08/22 07:58:10;;;;;;;15.80;14.10;;;;;;;29.73;69.41;97122.67;108711;1269;25667;-77
2023/08/22 08:00:40;;;;;;;17.10;15.30;;;;;;;29.46;68.48;97122.50;108911;1263;22545;-77
2023/08/22 08:03:09;;;;;;;16.80;15.10;;;;;;;29.22;68.61;97122.94;108892;1272;22518;-77
2023/08/22 08:05:38;;;;;;;17.20;15.40;;;;;;;29.01;68.66;97128.58;109149;1272;22544;-77
2023/08/22 08:08:07;;;;;;;16.60;15.00;;;;;;;28.96;68.72;97127.16;109166;1269;39736;-77
2023/08/22 08:10:37;;;;;;;16.70;15.00;;;;;;;28.95;69.03;97131.05;109154;1271;22521;-77
2023/08/22 08:13:06;;;;;;;16.80;15.10;;;;;;;28.94;69.11;97130.98;109160;1272;25370;-77
2023/08/22 08:15:33;;;;;;;;;;;;;;;28.89;69.59;97130.42;109186;1272;26577;-77
2023/08/22 08:18:03;;;;;;;17.60;16.10;;;;;;;28.90;69.43;97133.45;109192;1272;23818;-77
2023/08/22 08:20:31;;;;;;;18.40;16.70;;;;;;;28.80;69.26;97130.12;109163;1271;22521;-78
2023/08/22 08:23:00;;;;;;;19.50;17.10;;;;;;;28.73;69.15;97131.21;108895;1272;22558;-77
2023/08/22 08:25:28;;;;;;;17.70;16.10;;;;;;;28.77;69.61;97129.96;108858;1272;22480;-77
2023/08/22 08:27:58;;;;;;;16.20;14.50;;;;;;;29.01;70.44;97132.48;108888;1270;22511;-76
2023/08/22 08:30:26;;;;;;;;;;;;;;;29.26;70.31;97124.27;108835;1267;22505;-77
2023/08/22 08:32:54;;;;;;;16.90;15.30;;;;;;;29.44;70.50;97122.50;108872;1271;22538;-77
2023/08/22 08:35:22;;;;;;;17.40;15.60;;;;;;;29.54;69.88;97122.52;108952;1272;22515;-77
2023/08/22 08:37:52;;;;;;;17.80;16.00;;;;;;;29.45;68.62;97128.59;108861;1271;24484;-77
2023/08/22 08:40:21;;;;;;;16.90;15.20;;;;;;;29.33;68.84;97129.81;108817;1256;24215;-77
2023/08/22 08:42:49;;;;;;;18.30;16.50;;;;;;;29.41;69.03;97130.91;108853;1272;22548;-77
2023/08/22 08:45:18;;;;;;;18.20;16.50;;;;;;;29.41;68.45;97129.83;108926;1257;22517;-78
2023/08/22 08:47:48;;;;;;;16.70;15.10;;;;;;;29.19;67.76;97127.37;108861;1269;22532;-80
2023/08/22 08:50:17;;;;;;;16.10;14.50;;;;;;;29.19;68.45;97126.36;109345;1270;22521;-79
2023/08/22 08:52:45;;;;;;;;;;;;;;;29.36;68.32;97125.77;109272;1269;22684;-79
2023/08/22 08:55:14;;;;;;;20.00;16.20;;;;;;;29.42;67.66;97125.46;109323;1271;22644;-79
2023/08/22 08:57:42;;;;;;;17.60;15.80;;;;;;;29.35;67.46;97124.43;109287;1271;25195;-79
2023/08/22 09:00:13;;;;;;;18.50;16.60;;;;;;;29.38;67.26;97123.33;109237;1264;22630;-78
2023/08/22 09:02:42;;;;;;;16.90;15.30;;;;;;;29.37;67.51;97118.80;109295;1271;22549;-80
2023/08/22 09:05:12;;;;;;;17.80;15.90;;;;;;;29.35;67.32;97118.65;108917;1248;25369;-79
2023/08/22 09:07:43;;;;;;;16.60;15.00;;;;;;;29.21;66.93;97117.16;108857;1272;22537;-79
2023/08/22 09:10:12;;;;;;;16.90;15.30;;;;;;;29.14;66.88;97116.52;108880;1259;22598;-78
2023/08/22 09:12:41;;;;;;;17.10;15.40;;;;;;;29.15;67.36;97118.55;108900;1272;22521;-78
2023/08/22 09:15:17;;;;;;;16.30;14.80;;;;;;;29.22;67.78;97118.32;108975;1264;23140;-78
2023/08/22 09:17:45;;;;;;;17.20;15.40;;;;;;;29.16;67.53;97121.61;108841;1272;25338;-77
2023/08/22 09:20:18;;;;;;;17.10;15.10;;;;;;;29.12;67.09;97116.27;108857;1272;22552;-78
2023/08/22 09:22:46;;;;;;;17.70;15.90;;;;;;;28.99;66.44;97111.27;108866;1272;22531;-78
2023/08/22 09:25:16;;;;;;;16.00;14.50;;;;;;;28.88;66.50;97114.64;108824;1272;22638;-78
2023/08/22 09:27:50;;;;;;;18.70;16.90;;;;;;;28.84;67.35;97115.94;108828;1272;23247;-78
2023/08/22 09:30:20;;;;;;;17.00;15.40;;;;;;;28.79;66.66;97115.55;108905;1270;22526;-78
2023/08/22 09:32:59;;;;;;;16.70;15.10;;;;;;;28.69;67.03;97112.39;108971;1271;24206;-78
2023/08/22 09:35:30;;;;;;;;;;;;;;;28.76;67.07;97109.30;108903;1270;22519;-78
2023/08/22 09:38:07;;;;;;;14.50;13.20;;;;;;;28.91;67.22;97108.83;108879;1269;34307;-78
2023/08/22 09:40:36;;;;;;;16.30;14.70;;;;;;;29.04;66.62;97105.04;108903;1269;22615;-77
2023/08/22 09:43:05;;;;;;;15.00;13.50;;;;;;;29.01;66.56;97102.61;108901;1269;22674;-80
2023/08/22 09:45:39;;;;;;;13.80;12.40;;;;;;;29.13;66.82;97107.00;108980;1272;22519;-81
2023/08/22 09:48:12;;;;;;;14.40;13.00;;;;;;;29.26;66.87;97102.02;109226;1270;22590;-80
2023/08/22 09:50:43;;;;;;;14.30;12.90;;;;;;;29.34;66.32;97101.25;109315;1267;22525;-79
2023/08/22 09:53:14;;;;;;;14.20;12.80;;;;;;;29.38;65.77;97098.36;109189;1271;23986;-80
2023/08/22 09:55:44;;;;;;;13.50;12.20;;;;;;;29.37;65.38;97093.67;109201;1264;22566;-80
2023/08/22 09:58:13;;;;;;;15.60;14.20;;;;;;;29.29;65.03;97095.16;109205;1272;30936;-78
2023/08/22 10:00:43;;;;;;;14.30;12.80;;;;;;;29.18;65.21;97093.52;109182;1272;23490;-80
2023/08/22 10:03:14;;;;;;;15.10;13.70;;;;;;;29.17;64.90;97093.36;109117;1271;22650;-80
2023/08/22 10:05:44;;;;;;;15.10;13.60;;;;;;;29.00;64.12;97089.80;109181;1271;24200;-81
2023/08/22 10:08:13;;;;;;;14.00;12.70;;;;;;;28.92;64.58;97089.25;109247;1272;28283;-80
2023/08/22 10:10:43;;;;;;;14.50;13.10;;;;;;;28.99;65.25;97085.29;109204;1272;22632;-79
2023/08/22 10:13:15;;;;;;;14.60;13.20;;;;;;;29.08;65.11;97082.57;108793;1264;24620;-80
2023/08/22 10:15:45;;;;;;;14.50;13.10;;;;;;;29.14;65.09;97085.86;108859;1271;22539;-80
2023/08/22 10:18:15;;;;;;;14.30;12.90;;;;;;;29.13;65.45;97087.48;109191;1272;62066;-79
2023/08/22 10:20:44;;;;;;;14.40;12.90;;;;;;;29.14;65.37;97088.66;108852;1267;22627;-80
2023/08/22 10:23:12;;;;;;;;;;;;;;;29.05;65.09;97089.52;108826;1272;22907;-81
2023/08/22 10:25:50;;;;;;;14.60;12.80;;;;;;;28.87;64.66;97092.49;109150;1272;22512;-81
2023/08/22 10:28:19;;;;;;;14.50;13.10;;;;;;;28.77;65.25;97092.69;109266;1264;22521;-81
2023/08/22 10:31:07;;;;;;;13.70;12.30;;;;;;;28.65;65.00;97093.52;109258;1266;22549;-81
2023/08/22 10:33:35;;;;;;;14.10;12.70;;;;;;;28.59;65.16;97092.48;109305;1270;22580;-81
2023/08/22 10:36:06;;;;;;;13.90;12.30;;;;;;;28.67;65.63;97087.52;109256;1270;22563;-80
2023/08/22 10:38:53;;;;;;;14.90;13.00;;;;;;;28.83;65.95;97090.67;109313;1272;22521;-80
2023/08/22 10:41:43;;;;;;;13.90;12.50;;;;;;;28.86;65.85;97084.38;109363;1272;22539;-80
2023/08/22 10:44:20;;;;;;;14.50;13.10;;;;;;;28.73;64.66;97088.16;109308;1272;26533;-80
2023/08/22 10:47:03;;;;;;;12.70;11.50;;;;;;;28.66;65.44;97086.49;109301;1271;24849;-80
2023/08/22 10:49:39;;;;;;;13.20;11.80;;;;;;;28.81;65.96;97084.13;109369;1264;22646;-80
2023/08/22 10:52:10;;;;;;;13.30;12.00;;;;;;;28.91;65.41;97083.33;109299;1272;22610;-80
2023/08/22 10:54:59;;;;;;;13.30;11.90;;;;;;;28.96;65.78;97077.56;109213;1264;22521;-80
2023/08/22 10:57:30;;;;;;;13.40;12.10;;;;;;;29.06;66.10;97076.73;109241;1269;25292;-81
2023/08/22 11:00:13;;;;;;;15.10;13.20;;;;;;;29.14;65.29;97072.29;109329;1272;23470;-80
2023/08/22 11:02:44;;;;;;;13.60;12.20;;;;;;;29.24;65.38;97071.11;109297;1267;23737;-81
2023/08/22 11:05:15;;;;;;;13.10;11.70;;;;;;;29.22;64.26;97069.48;109288;1264;22525;-80
2023/08/22 11:07:46;;;;;;;13.10;12.00;;;;;;;29.14;64.98;97062.85;109270;1267;22514;-80
2023/08/22 11:10:18;;;;;;;13.60;12.30;;;;;;;29.19;65.52;97066.44;109216;1272;22514;-80
2023/08/22 11:12:47;;;;;;;13.10;11.80;;;;;;;29.30;66.09;97063.25;109284;1264;22651;-80
2023/08/22 11:15:17;;;;;;;14.30;12.90;;;;;;;29.39;65.96;97056.92;109257;1270;22547;-80
2023/08/22 11:17:46;;;;;;;12.80;11.50;;;;;;;29.42;65.54;97054.58;109313;1272;23325;-80
2023/08/22 11:20:17;;;;;;;13.00;11.80;;;;;;;29.44;65.44;97049.91;109195;1271;22566;-80
2023/08/22 11:22:46;;;;;;;13.10;11.80;;;;;;;29.48;65.18;97052.27;109186;1269;22532;-80